sensor_id;sensor_type;location;lat;lon;timestamp;P1;durP1;ratioP1;P2;durP2;ratioP2
66870;SDS011;53780;44.998;9.926;2023-05-19T00:00:30;6.97;;;3.30;;
66870;SDS011;53780;44.998;9.926;2023-05-19T00:03:35;8.30;;;3.70;;
66870;SDS011;53780;44.998;9.926;2023-05-19T00:06:43;7.67;;;3.17;;
66870;SDS011;53780;44.998;9.926;2023-05-19T00:09:53;6.93;;;3.50;;
66870;SDS011;53780;44.998;9.926;2023-05-19T00:12:57;8.45;;;3.47;;
66870;SDS011;53780;44.998;9.926;2023-05-19T00:16:01;8.88;;;3.30;;
66870;SDS011;53780;44.998;9.926;2023-05-19T00:19:05;9.38;;;3.40;;
66870;SDS011;53780;44.998;9.926;2023-05-19T00:22:12;7.77;;;3.43;;
66870;SDS011;53780;44.998;9.926;2023-05-19T00:25:16;7.35;;;3.28;;
66870;SDS011;53780;44.998;9.926;2023-05-19T00:28:20;8.95;;;3.58;;
66870;SDS011;53780;44.998;9.926;2023-05-19T00:31:24;8.50;;;3.28;;
66870;SDS011;53780;44.998;9.926;2023-05-19T00:34:28;8.77;;;3.83;;
66870;SDS011;53780;44.998;9.926;2023-05-19T00:37:32;10.10;;;3.50;;
66870;SDS011;53780;44.998;9.926;2023-05-19T00:40:35;8.13;;;3.38;;
66870;SDS011;53780;44.998;9.926;2023-05-19T00:43:39;6.95;;;3.40;;
66870;SDS011;53780;44.998;9.926;2023-05-19T00:46:44;7.88;;;3.70;;
66870;SDS011;53780;44.998;9.926;2023-05-19T00:49:48;7.95;;;3.70;;
66870;SDS011;53780;44.998;9.926;2023-05-19T00:52:51;7.53;;;3.67;;
66870;SDS011;53780;44.998;9.926;2023-05-19T00:55:56;8.35;;;3.63;;
66870;SDS011;53780;44.998;9.926;2023-05-19T00:59:01;9.05;;;3.90;;
66870;SDS011;53780;44.998;9.926;2023-05-19T01:02:05;8.68;;;3.90;;
66870;SDS011;53780;44.998;9.926;2023-05-19T01:05:09;8.77;;;3.47;;
66870;SDS011;53780;44.998;9.926;2023-05-19T01:08:14;9.70;;;3.77;;
66870;SDS011;53780;44.998;9.926;2023-05-19T01:11:18;8.63;;;3.97;;
66870;SDS011;53780;44.998;9.926;2023-05-19T01:14:24;8.88;;;4.00;;
66870;SDS011;53780;44.998;9.926;2023-05-19T01:20:38;7.95;;;3.83;;
66870;SDS011;53780;44.998;9.926;2023-05-19T01:24:44;9.70;;;4.10;;
66870;SDS011;53780;44.998;9.926;2023-05-19T01:31:22;8.90;;;3.88;;
66870;SDS011;53780;44.998;9.926;2023-05-19T01:34:29;8.73;;;3.95;;
66870;SDS011;53780;44.998;9.926;2023-05-19T01:37:33;8.27;;;3.70;;
66870;SDS011;53780;44.998;9.926;2023-05-19T01:40:41;9.73;;;4.40;;
66870;SDS011;53780;44.998;9.926;2023-05-19T01:43:47;9.50;;;4.22;;
66870;SDS011;53780;44.998;9.926;2023-05-19T01:46:52;10.10;;;4.75;;
66870;SDS011;53780;44.998;9.926;2023-05-19T01:49:57;9.00;;;4.43;;
66870;SDS011;53780;44.998;9.926;2023-05-19T01:53:01;10.05;;;4.72;;
66870;SDS011;53780;44.998;9.926;2023-05-19T01:56:05;9.13;;;4.33;;
66870;SDS011;53780;44.998;9.926;2023-05-19T01:59:15;9.85;;;4.32;;
66870;SDS011;53780;44.998;9.926;2023-05-19T02:09:45;11.30;;;4.95;;
66870;SDS011;53780;44.998;9.926;2023-05-19T02:13:06;10.67;;;4.80;;
66870;SDS011;53780;44.998;9.926;2023-05-19T02:16:12;10.70;;;4.93;;
66870;SDS011;53780;44.998;9.926;2023-05-19T02:19:23;11.80;;;4.97;;
66870;SDS011;53780;44.998;9.926;2023-05-19T02:22:29;11.80;;;5.22;;
66870;SDS011;53780;44.998;9.926;2023-05-19T02:25:33;12.38;;;5.35;;
66870;SDS011;53780;44.998;9.926;2023-05-19T02:28:37;11.83;;;5.10;;
66870;SDS011;53780;44.998;9.926;2023-05-19T02:31:40;12.35;;;4.93;;
66870;SDS011;53780;44.998;9.926;2023-05-19T02:34:44;11.68;;;5.38;;
66870;SDS011;53780;44.998;9.926;2023-05-19T02:37:48;10.88;;;5.03;;
66870;SDS011;53780;44.998;9.926;2023-05-19T02:40:52;11.38;;;5.60;;
66870;SDS011;53780;44.998;9.926;2023-05-19T02:43:56;10.03;;;4.93;;
66870;SDS011;53780;44.998;9.926;2023-05-19T02:47:00;10.93;;;5.25;;
66870;SDS011;53780;44.998;9.926;2023-05-19T02:50:04;11.43;;;5.32;;
66870;SDS011;53780;44.998;9.926;2023-05-19T02:53:08;11.15;;;5.57;;
66870;SDS011;53780;44.998;9.926;2023-05-19T02:56:12;10.43;;;5.50;;
66870;SDS011;53780;44.998;9.926;2023-05-19T02:59:16;11.17;;;5.50;;
66870;SDS011;53780;44.998;9.926;2023-05-19T03:02:20;11.00;;;5.30;;
66870;SDS011;53780;44.998;9.926;2023-05-19T03:05:24;10.52;;;5.60;;
66870;SDS011;53780;44.998;9.926;2023-05-19T03:08:27;12.88;;;5.75;;
66870;SDS011;53780;44.998;9.926;2023-05-19T03:11:31;11.45;;;5.90;;
66870;SDS011;53780;44.998;9.926;2023-05-19T03:14:35;12.83;;;5.67;;
66870;SDS011;53780;44.998;9.926;2023-05-19T03:17:42;11.27;;;6.00;;
66870;SDS011;53780;44.998;9.926;2023-05-19T03:20:46;12.02;;;6.10;;
66870;SDS011;53780;44.998;9.926;2023-05-19T03:23:50;13.85;;;6.22;;
66870;SDS011;53780;44.998;9.926;2023-05-19T03:26:53;12.23;;;6.15;;
66870;SDS011;53780;44.998;9.926;2023-05-19T03:29:58;11.80;;;6.27;;
66870;SDS011;53780;44.998;9.926;2023-05-19T03:33:02;12.43;;;6.18;;
66870;SDS011;53780;44.998;9.926;2023-05-19T03:36:07;13.02;;;6.40;;
66870;SDS011;53780;44.998;9.926;2023-05-19T03:39:15;13.75;;;6.15;;
66870;SDS011;53780;44.998;9.926;2023-05-19T03:42:20;15.93;;;6.93;;
66870;SDS011;53780;44.998;9.926;2023-05-19T03:45:25;14.33;;;6.57;;
66870;SDS011;53780;44.998;9.926;2023-05-19T03:48:29;11.65;;;6.30;;
66870;SDS011;53780;44.998;9.926;2023-05-19T03:51:52;12.15;;;6.88;;
66870;SDS011;53780;44.998;9.926;2023-05-19T03:55:04;13.23;;;6.97;;
66870;SDS011;53780;44.998;9.926;2023-05-19T03:58:09;14.30;;;6.85;;
66870;SDS011;53780;44.998;9.926;2023-05-19T04:01:13;15.03;;;6.10;;
66870;SDS011;53780;44.998;9.926;2023-05-19T04:04:17;14.23;;;6.70;;
66870;SDS011;53780;44.998;9.926;2023-05-19T04:07:22;12.73;;;6.95;;
66870;SDS011;53780;44.998;9.926;2023-05-19T04:10:25;14.05;;;7.30;;
66870;SDS011;53780;44.998;9.926;2023-05-19T04:13:34;18.23;;;7.85;;
66870;SDS011;53780;44.998;9.926;2023-05-19T04:16:37;16.40;;;8.23;;
66870;SDS011;53780;44.998;9.926;2023-05-19T04:19:41;15.15;;;8.18;;
66870;SDS011;53780;44.998;9.926;2023-05-19T04:22:45;16.25;;;7.40;;
66870;SDS011;53780;44.998;9.926;2023-05-19T04:25:49;12.88;;;7.20;;
66870;SDS011;53780;44.998;9.926;2023-05-19T04:28:53;14.88;;;7.82;;
66870;SDS011;53780;44.998;9.926;2023-05-19T04:31:59;16.67;;;7.37;;
66870;SDS011;53780;44.998;9.926;2023-05-19T04:35:03;14.55;;;7.55;;
66870;SDS011;53780;44.998;9.926;2023-05-19T04:38:08;15.45;;;7.70;;
66870;SDS011;53780;44.998;9.926;2023-05-19T04:41:12;16.45;;;7.60;;
66870;SDS011;53780;44.998;9.926;2023-05-19T04:44:19;15.32;;;7.88;;
66870;SDS011;53780;44.998;9.926;2023-05-19T04:47:26;15.47;;;7.63;;
66870;SDS011;53780;44.998;9.926;2023-05-19T04:50:30;15.10;;;6.95;;
66870;SDS011;53780;44.998;9.926;2023-05-19T04:53:34;12.13;;;6.35;;
66870;SDS011;53780;44.998;9.926;2023-05-19T04:56:41;11.80;;;6.53;;
66870;SDS011;53780;44.998;9.926;2023-05-19T04:59:46;11.95;;;6.28;;
66870;SDS011;53780;44.998;9.926;2023-05-19T05:02:51;12.17;;;6.33;;
66870;SDS011;53780;44.998;9.926;2023-05-19T05:05:57;14.70;;;7.18;;
66870;SDS011;53780;44.998;9.926;2023-05-19T05:09:02;14.02;;;6.85;;
66870;SDS011;53780;44.998;9.926;2023-05-19T05:12:07;15.57;;;6.40;;
66870;SDS011;53780;44.998;9.926;2023-05-19T05:15:13;14.50;;;6.03;;
66870;SDS011;53780;44.998;9.926;2023-05-19T05:18:17;13.87;;;5.93;;
66870;SDS011;53780;44.998;9.926;2023-05-19T05:21:22;10.43;;;5.93;;
66870;SDS011;53780;44.998;9.926;2023-05-19T05:24:29;12.65;;;6.65;;
66870;SDS011;53780;44.998;9.926;2023-05-19T05:27:36;12.27;;;6.78;;
66870;SDS011;53780;44.998;9.926;2023-05-19T05:30:42;12.43;;;6.22;;
66870;SDS011;53780;44.998;9.926;2023-05-19T05:33:47;10.83;;;5.90;;
66870;SDS011;53780;44.998;9.926;2023-05-19T05:36:54;13.63;;;6.82;;
66870;SDS011;53780;44.998;9.926;2023-05-19T05:39:58;11.88;;;6.30;;
66870;SDS011;53780;44.998;9.926;2023-05-19T05:43:02;14.85;;;6.53;;
66870;SDS011;53780;44.998;9.926;2023-05-19T05:46:09;13.38;;;5.72;;
66870;SDS011;53780;44.998;9.926;2023-05-19T05:49:13;14.00;;;6.50;;
66870;SDS011;53780;44.998;9.926;2023-05-19T05:52:21;13.88;;;6.28;;
66870;SDS011;53780;44.998;9.926;2023-05-19T05:55:30;13.00;;;6.93;;
66870;SDS011;53780;44.998;9.926;2023-05-19T05:58:35;13.93;;;6.50;;
66870;SDS011;53780;44.998;9.926;2023-05-19T06:01:41;13.32;;;6.65;;
66870;SDS011;53780;44.998;9.926;2023-05-19T06:04:47;15.30;;;7.37;;
66870;SDS011;53780;44.998;9.926;2023-05-19T06:07:51;15.57;;;7.70;;
66870;SDS011;53780;44.998;9.926;2023-05-19T06:10:59;14.05;;;6.93;;
66870;SDS011;53780;44.998;9.926;2023-05-19T06:14:04;12.68;;;6.47;;
66870;SDS011;53780;44.998;9.926;2023-05-19T06:17:28;12.90;;;6.30;;
66870;SDS011;53780;44.998;9.926;2023-05-19T06:20:34;10.57;;;5.53;;
66870;SDS011;53780;44.998;9.926;2023-05-19T06:23:39;11.55;;;5.53;;
66870;SDS011;53780;44.998;9.926;2023-05-19T06:26:45;12.68;;;6.10;;
66870;SDS011;53780;44.998;9.926;2023-05-19T06:29:49;10.02;;;5.30;;
66870;SDS011;53780;44.998;9.926;2023-05-19T06:32:53;11.90;;;5.55;;
66870;SDS011;53780;44.998;9.926;2023-05-19T06:35:58;10.50;;;4.77;;
66870;SDS011;53780;44.998;9.926;2023-05-19T06:39:02;10.25;;;4.57;;
66870;SDS011;53780;44.998;9.926;2023-05-19T06:42:08;13.43;;;4.82;;
66870;SDS011;53780;44.998;9.926;2023-05-19T06:45:30;9.85;;;4.72;;
66870;SDS011;53780;44.998;9.926;2023-05-19T06:48:37;9.93;;;4.70;;
66870;SDS011;53780;44.998;9.926;2023-05-19T06:51:41;10.47;;;5.00;;
66870;SDS011;53780;44.998;9.926;2023-05-19T06:54:45;10.05;;;4.70;;
66870;SDS011;53780;44.998;9.926;2023-05-19T06:57:49;11.60;;;4.60;;
66870;SDS011;53780;44.998;9.926;2023-05-19T07:00:55;9.90;;;4.70;;
66870;SDS011;53780;44.998;9.926;2023-05-19T07:04:01;9.15;;;4.10;;
66870;SDS011;53780;44.998;9.926;2023-05-19T07:07:06;9.53;;;4.17;;
66870;SDS011;53780;44.998;9.926;2023-05-19T07:10:10;8.68;;;4.35;;
66870;SDS011;53780;44.998;9.926;2023-05-19T07:13:14;7.72;;;3.60;;
66870;SDS011;53780;44.998;9.926;2023-05-19T07:16:18;10.20;;;4.03;;
66870;SDS011;53780;44.998;9.926;2023-05-19T07:19:22;8.27;;;3.90;;
66870;SDS011;53780;44.998;9.926;2023-05-19T07:22:27;10.20;;;3.90;;
66870;SDS011;53780;44.998;9.926;2023-05-19T07:25:32;8.00;;;3.70;;
66870;SDS011;53780;44.998;9.926;2023-05-19T07:28:36;9.00;;;3.60;;
66870;SDS011;53780;44.998;9.926;2023-05-19T07:31:40;9.07;;;4.03;;
66870;SDS011;53780;44.998;9.926;2023-05-19T07:34:43;7.82;;;3.78;;
66870;SDS011;53780;44.998;9.926;2023-05-19T07:37:48;8.67;;;4.10;;
66870;SDS011;53780;44.998;9.926;2023-05-19T07:40:52;8.32;;;3.90;;
66870;SDS011;53780;44.998;9.926;2023-05-19T07:43:56;9.63;;;4.53;;
66870;SDS011;53780;44.998;9.926;2023-05-19T07:47:00;7.70;;;3.40;;
66870;SDS011;53780;44.998;9.926;2023-05-19T07:50:04;7.20;;;3.40;;
66870;SDS011;53780;44.998;9.926;2023-05-19T07:53:08;7.53;;;3.60;;
66870;SDS011;53780;44.998;9.926;2023-05-19T07:56:12;6.82;;;3.20;;
66870;SDS011;53780;44.998;9.926;2023-05-19T07:59:16;7.38;;;3.63;;
66870;SDS011;53780;44.998;9.926;2023-05-19T08:02:21;8.10;;;3.42;;
66870;SDS011;53780;44.998;9.926;2023-05-19T08:05:25;8.52;;;3.72;;
66870;SDS011;53780;44.998;9.926;2023-05-19T08:08:32;8.43;;;3.57;;
66870;SDS011;53780;44.998;9.926;2023-05-19T08:11:36;7.45;;;3.30;;
66870;SDS011;53780;44.998;9.926;2023-05-19T08:14:40;6.72;;;3.42;;
66870;SDS011;53780;44.998;9.926;2023-05-19T08:17:44;6.40;;;2.88;;
66870;SDS011;53780;44.998;9.926;2023-05-19T08:20:47;7.13;;;3.13;;
66870;SDS011;53780;44.998;9.926;2023-05-19T08:23:51;8.57;;;3.20;;
66870;SDS011;53780;44.998;9.926;2023-05-19T08:26:55;7.65;;;3.55;;
66870;SDS011;53780;44.998;9.926;2023-05-19T08:29:59;7.95;;;3.80;;
66870;SDS011;53780;44.998;9.926;2023-05-19T08:33:03;7.00;;;3.33;;
66870;SDS011;53780;44.998;9.926;2023-05-19T08:36:07;8.60;;;3.88;;
66870;SDS011;53780;44.998;9.926;2023-05-19T08:39:11;7.83;;;4.03;;
66870;SDS011;53780;44.998;9.926;2023-05-19T08:42:16;8.38;;;4.05;;
66870;SDS011;53780;44.998;9.926;2023-05-19T08:45:20;9.07;;;4.32;;
66870;SDS011;53780;44.998;9.926;2023-05-19T08:48:24;8.00;;;3.97;;
66870;SDS011;53780;44.998;9.926;2023-05-19T08:51:41;8.65;;;3.95;;
66870;SDS011;53780;44.998;9.926;2023-05-19T08:54:54;8.23;;;4.03;;
66870;SDS011;53780;44.998;9.926;2023-05-19T08:58:08;8.43;;;4.47;;
66870;SDS011;53780;44.998;9.926;2023-05-19T09:01:13;13.73;;;4.90;;
66870;SDS011;53780;44.998;9.926;2023-05-19T09:04:20;11.48;;;4.55;;
66870;SDS011;53780;44.998;9.926;2023-05-19T09:07:24;9.82;;;4.63;;
66870;SDS011;53780;44.998;9.926;2023-05-19T09:10:29;10.97;;;5.10;;
66870;SDS011;53780;44.998;9.926;2023-05-19T09:13:33;9.27;;;5.05;;
66870;SDS011;53780;44.998;9.926;2023-05-19T09:16:37;11.90;;;6.28;;
66870;SDS011;53780;44.998;9.926;2023-05-19T09:19:41;12.18;;;5.47;;
66870;SDS011;53780;44.998;9.926;2023-05-19T09:22:46;10.15;;;5.25;;
66870;SDS011;53780;44.998;9.926;2023-05-19T09:25:50;10.73;;;5.13;;
66870;SDS011;53780;44.998;9.926;2023-05-19T09:28:56;10.73;;;5.30;;
66870;SDS011;53780;44.998;9.926;2023-05-19T09:32:00;10.93;;;5.53;;
66870;SDS011;53780;44.998;9.926;2023-05-19T09:35:07;10.30;;;5.25;;
66870;SDS011;53780;44.998;9.926;2023-05-19T09:38:16;10.38;;;5.90;;
66870;SDS011;53780;44.998;9.926;2023-05-19T09:41:20;11.47;;;6.40;;
66870;SDS011;53780;44.998;9.926;2023-05-19T09:44:26;12.88;;;6.07;;
66870;SDS011;53780;44.998;9.926;2023-05-19T09:47:37;11.75;;;6.40;;
66870;SDS011;53780;44.998;9.926;2023-05-19T09:50:43;10.48;;;5.90;;
66870;SDS011;53780;44.998;9.926;2023-05-19T09:53:47;12.73;;;6.60;;
66870;SDS011;53780;44.998;9.926;2023-05-19T10:00:03;11.63;;;5.85;;
66870;SDS011;53780;44.998;9.926;2023-05-19T10:03:16;12.55;;;6.78;;
66870;SDS011;53780;44.998;9.926;2023-05-19T10:06:21;11.93;;;6.40;;
66870;SDS011;53780;44.998;9.926;2023-05-19T10:09:26;13.52;;;7.10;;
66870;SDS011;53780;44.998;9.926;2023-05-19T10:12:31;12.33;;;6.57;;
66870;SDS011;53780;44.998;9.926;2023-05-19T10:15:35;12.27;;;6.82;;
66870;SDS011;53780;44.998;9.926;2023-05-19T10:18:40;12.13;;;6.63;;
66870;SDS011;53780;44.998;9.926;2023-05-19T10:21:44;11.65;;;6.70;;
66870;SDS011;53780;44.998;9.926;2023-05-19T10:24:48;12.07;;;6.60;;
66870;SDS011;53780;44.998;9.926;2023-05-19T10:27:59;12.87;;;7.10;;
66870;SDS011;53780;44.998;9.926;2023-05-19T10:31:08;13.10;;;7.70;;
66870;SDS011;53780;44.998;9.926;2023-05-19T10:41:45;15.65;;;8.05;;
66870;SDS011;53780;44.998;9.926;2023-05-19T10:45:18;16.53;;;8.27;;
66870;SDS011;53780;44.998;9.926;2023-05-19T10:48:25;14.05;;;7.70;;
66870;SDS011;53780;44.998;9.926;2023-05-19T10:51:32;15.05;;;7.90;;
66870;SDS011;53780;44.998;9.926;2023-05-19T10:54:40;12.70;;;6.82;;
66870;SDS011;53780;44.998;9.926;2023-05-19T10:57:55;13.25;;;6.40;;
66870;SDS011;53780;44.998;9.926;2023-05-19T11:01:05;14.07;;;6.00;;
66870;SDS011;53780;44.998;9.926;2023-05-19T11:04:12;13.98;;;6.35;;
66870;SDS011;53780;44.998;9.926;2023-05-19T11:07:18;13.18;;;6.05;;
66870;SDS011;53780;44.998;9.926;2023-05-19T11:10:24;12.63;;;6.13;;
66870;SDS011;53780;44.998;9.926;2023-05-19T11:13:28;12.40;;;5.35;;
66870;SDS011;53780;44.998;9.926;2023-05-19T11:16:33;14.53;;;6.07;;
66870;SDS011;53780;44.998;9.926;2023-05-19T11:19:37;12.98;;;6.13;;
66870;SDS011;53780;44.998;9.926;2023-05-19T11:22:43;14.73;;;6.60;;
66870;SDS011;53780;44.998;9.926;2023-05-19T11:26:04;14.93;;;6.65;;
66870;SDS011;53780;44.998;9.926;2023-05-19T11:29:09;15.07;;;6.28;;
66870;SDS011;53780;44.998;9.926;2023-05-19T11:32:14;16.67;;;6.70;;
66870;SDS011;53780;44.998;9.926;2023-05-19T11:35:19;19.58;;;7.60;;
66870;SDS011;53780;44.998;9.926;2023-05-19T11:38:23;13.23;;;6.25;;
66870;SDS011;53780;44.998;9.926;2023-05-19T11:41:28;12.38;;;5.68;;
66870;SDS011;53780;44.998;9.926;2023-05-19T11:44:33;14.60;;;6.05;;
66870;SDS011;53780;44.998;9.926;2023-05-19T11:47:37;12.07;;;5.50;;
66870;SDS011;53780;44.998;9.926;2023-05-19T11:50:40;13.60;;;5.95;;
66870;SDS011;53780;44.998;9.926;2023-05-19T11:53:47;10.88;;;6.18;;
66870;SDS011;53780;44.998;9.926;2023-05-19T11:56:52;10.55;;;5.10;;
66870;SDS011;53780;44.998;9.926;2023-05-19T11:59:56;10.68;;;5.18;;
66870;SDS011;53780;44.998;9.926;2023-05-19T12:03:00;9.87;;;5.00;;
66870;SDS011;53780;44.998;9.926;2023-05-19T12:06:05;13.55;;;4.70;;
66870;SDS011;53780;44.998;9.926;2023-05-19T12:09:11;10.65;;;5.28;;
66870;SDS011;53780;44.998;9.926;2023-05-19T12:12:15;10.50;;;4.80;;
66870;SDS011;53780;44.998;9.926;2023-05-19T12:15:21;11.85;;;5.22;;
66870;SDS011;53780;44.998;9.926;2023-05-19T12:18:29;10.20;;;5.00;;
66870;SDS011;53780;44.998;9.926;2023-05-19T12:21:35;10.25;;;5.53;;
66870;SDS011;53780;44.998;9.926;2023-05-19T12:24:40;10.10;;;5.80;;
66870;SDS011;53780;44.998;9.926;2023-05-19T12:27:45;12.00;;;5.38;;
66870;SDS011;53780;44.998;9.926;2023-05-19T12:30:51;10.98;;;5.47;;
66870;SDS011;53780;44.998;9.926;2023-05-19T12:33:55;13.73;;;6.00;;
66870;SDS011;53780;44.998;9.926;2023-05-19T12:37:00;13.82;;;6.00;;
66870;SDS011;53780;44.998;9.926;2023-05-19T12:40:05;11.57;;;6.05;;
66870;SDS011;53780;44.998;9.926;2023-05-19T12:43:20;15.02;;;6.10;;
66870;SDS011;53780;44.998;9.926;2023-05-19T12:46:24;12.32;;;5.72;;
66870;SDS011;53780;44.998;9.926;2023-05-19T12:49:28;14.23;;;6.27;;
66870;SDS011;53780;44.998;9.926;2023-05-19T12:52:33;15.48;;;7.10;;
66870;SDS011;53780;44.998;9.926;2023-05-19T12:55:50;14.55;;;7.28;;
66870;SDS011;53780;44.998;9.926;2023-05-19T12:58:55;13.18;;;6.55;;
66870;SDS011;53780;44.998;9.926;2023-05-19T13:01:59;11.23;;;5.85;;
66870;SDS011;53780;44.998;9.926;2023-05-19T13:05:04;13.47;;;6.03;;
66870;SDS011;53780;44.998;9.926;2023-05-19T13:08:12;13.25;;;5.75;;
66870;SDS011;53780;44.998;9.926;2023-05-19T13:11:18;10.00;;;4.75;;
66870;SDS011;53780;44.998;9.926;2023-05-19T13:14:22;9.20;;;4.45;;
66870;SDS011;53780;44.998;9.926;2023-05-19T13:17:25;10.18;;;4.95;;
66870;SDS011;53780;44.998;9.926;2023-05-19T13:20:29;12.83;;;5.07;;
66870;SDS011;53780;44.998;9.926;2023-05-19T13:23:34;9.10;;;5.00;;
66870;SDS011;53780;44.998;9.926;2023-05-19T13:26:37;9.10;;;4.60;;
66870;SDS011;53780;44.998;9.926;2023-05-19T13:29:42;9.80;;;4.60;;
66870;SDS011;53780;44.998;9.926;2023-05-19T13:32:46;11.70;;;5.53;;
66870;SDS011;53780;44.998;9.926;2023-05-19T13:35:51;11.53;;;5.10;;
66870;SDS011;53780;44.998;9.926;2023-05-19T13:38:55;10.00;;;5.13;;
66870;SDS011;53780;44.998;9.926;2023-05-19T13:42:00;10.15;;;4.40;;
66870;SDS011;53780;44.998;9.926;2023-05-19T13:45:03;7.75;;;3.22;;
66870;SDS011;53780;44.998;9.926;2023-05-19T13:48:07;7.55;;;3.28;;
66870;SDS011;53780;44.998;9.926;2023-05-19T13:51:12;9.70;;;3.37;;
66870;SDS011;53780;44.998;9.926;2023-05-19T13:54:16;6.32;;;2.97;;
66870;SDS011;53780;44.998;9.926;2023-05-19T13:57:20;7.70;;;3.08;;
66870;SDS011;53780;44.998;9.926;2023-05-19T14:00:25;7.10;;;3.50;;
66870;SDS011;53780;44.998;9.926;2023-05-19T14:03:28;8.10;;;3.08;;
66870;SDS011;53780;44.998;9.926;2023-05-19T14:06:32;6.50;;;2.83;;
66870;SDS011;53780;44.998;9.926;2023-05-19T14:09:36;7.45;;;3.28;;
66870;SDS011;53780;44.998;9.926;2023-05-19T14:12:40;7.03;;;3.47;;
66870;SDS011;53780;44.998;9.926;2023-05-19T14:15:43;7.18;;;3.35;;
66870;SDS011;53780;44.998;9.926;2023-05-19T14:18:48;8.43;;;3.67;;
66870;SDS011;53780;44.998;9.926;2023-05-19T14:21:51;5.67;;;2.40;;
66870;SDS011;53780;44.998;9.926;2023-05-19T14:24:55;8.10;;;2.95;;
66870;SDS011;53780;44.998;9.926;2023-05-19T14:28:00;5.63;;;2.00;;
66870;SDS011;53780;44.998;9.926;2023-05-19T14:31:04;4.85;;;2.03;;
66870;SDS011;53780;44.998;9.926;2023-05-19T14:34:08;6.10;;;2.38;;
66870;SDS011;53780;44.998;9.926;2023-05-19T14:37:12;6.10;;;2.40;;
66870;SDS011;53780;44.998;9.926;2023-05-19T14:40:16;7.70;;;2.55;;
66870;SDS011;53780;44.998;9.926;2023-05-19T14:43:19;7.40;;;2.50;;
66870;SDS011;53780;44.998;9.926;2023-05-19T14:46:23;6.78;;;2.80;;
66870;SDS011;53780;44.998;9.926;2023-05-19T14:49:27;5.95;;;2.72;;
66870;SDS011;53780;44.998;9.926;2023-05-19T14:52:31;6.57;;;2.90;;
66870;SDS011;53780;44.998;9.926;2023-05-19T14:55:35;6.50;;;2.55;;
66870;SDS011;53780;44.998;9.926;2023-05-19T14:58:39;7.40;;;2.75;;
66870;SDS011;53780;44.998;9.926;2023-05-19T15:01:42;6.18;;;2.83;;
66870;SDS011;53780;44.998;9.926;2023-05-19T15:04:46;6.97;;;3.10;;
66870;SDS011;53780;44.998;9.926;2023-05-19T15:07:50;7.43;;;3.20;;
66870;SDS011;53780;44.998;9.926;2023-05-19T15:10:54;8.40;;;3.15;;
66870;SDS011;53780;44.998;9.926;2023-05-19T15:13:58;6.13;;;3.10;;
66870;SDS011;53780;44.998;9.926;2023-05-19T15:17:02;7.05;;;3.42;;
66870;SDS011;53780;44.998;9.926;2023-05-19T15:20:06;7.95;;;3.08;;
66870;SDS011;53780;44.998;9.926;2023-05-19T15:23:11;7.20;;;3.30;;
66870;SDS011;53780;44.998;9.926;2023-05-19T15:26:15;6.35;;;2.97;;
66870;SDS011;53780;44.998;9.926;2023-05-19T15:29:19;7.00;;;3.47;;
66870;SDS011;53780;44.998;9.926;2023-05-19T15:32:23;8.02;;;2.97;;
66870;SDS011;53780;44.998;9.926;2023-05-19T15:35:27;7.00;;;3.60;;
66870;SDS011;53780;44.998;9.926;2023-05-19T15:38:33;6.80;;;3.00;;
66870;SDS011;53780;44.998;9.926;2023-05-19T15:41:38;6.47;;;3.10;;
66870;SDS011;53780;44.998;9.926;2023-05-19T15:44:42;9.07;;;4.05;;
66870;SDS011;53780;44.998;9.926;2023-05-19T15:47:48;8.40;;;3.65;;
66870;SDS011;53780;44.998;9.926;2023-05-19T15:50:51;8.18;;;3.50;;
66870;SDS011;53780;44.998;9.926;2023-05-19T15:53:56;8.47;;;3.60;;
66870;SDS011;53780;44.998;9.926;2023-05-19T15:56:59;8.05;;;3.40;;
66870;SDS011;53780;44.998;9.926;2023-05-19T16:00:03;8.85;;;3.78;;
66870;SDS011;53780;44.998;9.926;2023-05-19T16:03:08;8.02;;;3.35;;
66870;SDS011;53780;44.998;9.926;2023-05-19T16:06:13;8.43;;;3.40;;
66870;SDS011;53780;44.998;9.926;2023-05-19T16:09:16;12.63;;;3.90;;
66870;SDS011;53780;44.998;9.926;2023-05-19T16:12:20;8.68;;;3.92;;
66870;SDS011;53780;44.998;9.926;2023-05-19T16:15:24;8.65;;;3.70;;
66870;SDS011;53780;44.998;9.926;2023-05-19T16:18:30;10.60;;;4.00;;
66870;SDS011;53780;44.998;9.926;2023-05-19T16:21:34;9.95;;;3.90;;
66870;SDS011;53780;44.998;9.926;2023-05-19T16:24:38;8.33;;;3.80;;
66870;SDS011;53780;44.998;9.926;2023-05-19T16:27:42;8.40;;;3.30;;
66870;SDS011;53780;44.998;9.926;2023-05-19T16:30:46;7.57;;;3.10;;
66870;SDS011;53780;44.998;9.926;2023-05-19T16:33:50;9.20;;;3.33;;
66870;SDS011;53780;44.998;9.926;2023-05-19T16:36:54;7.28;;;3.10;;
66870;SDS011;53780;44.998;9.926;2023-05-19T16:39:57;7.30;;;3.17;;
66870;SDS011;53780;44.998;9.926;2023-05-19T16:43:01;8.27;;;3.15;;
66870;SDS011;53780;44.998;9.926;2023-05-19T16:46:05;12.25;;;3.50;;
66870;SDS011;53780;44.998;9.926;2023-05-19T16:49:09;8.45;;;2.40;;
66870;SDS011;53780;44.998;9.926;2023-05-19T16:52:13;6.57;;;2.35;;
66870;SDS011;53780;44.998;9.926;2023-05-19T16:55:17;5.53;;;2.30;;
66870;SDS011;53780;44.998;9.926;2023-05-19T16:58:22;5.43;;;1.70;;
66870;SDS011;53780;44.998;9.926;2023-05-19T17:01:26;5.68;;;1.90;;
66870;SDS011;53780;44.998;9.926;2023-05-19T17:04:29;4.85;;;1.90;;
66870;SDS011;53780;44.998;9.926;2023-05-19T17:07:34;4.07;;;1.55;;
66870;SDS011;53780;44.998;9.926;2023-05-19T17:10:38;5.43;;;1.50;;
66870;SDS011;53780;44.998;9.926;2023-05-19T17:13:42;4.18;;;1.50;;
66870;SDS011;53780;44.998;9.926;2023-05-19T17:16:46;4.20;;;1.38;;
66870;SDS011;53780;44.998;9.926;2023-05-19T17:19:50;3.85;;;1.60;;
66870;SDS011;53780;44.998;9.926;2023-05-19T17:22:54;6.50;;;2.42;;
66870;SDS011;53780;44.998;9.926;2023-05-19T17:25:58;4.97;;;1.97;;
66870;SDS011;53780;44.998;9.926;2023-05-19T17:29:02;4.13;;;1.80;;
66870;SDS011;53780;44.998;9.926;2023-05-19T17:32:05;5.25;;;1.60;;
66870;SDS011;53780;44.998;9.926;2023-05-19T17:35:09;5.22;;;1.45;;
66870;SDS011;53780;44.998;9.926;2023-05-19T17:38:13;3.92;;;1.73;;
66870;SDS011;53780;44.998;9.926;2023-05-19T17:41:16;4.73;;;1.60;;
66870;SDS011;53780;44.998;9.926;2023-05-19T17:44:20;6.47;;;1.60;;
66870;SDS011;53780;44.998;9.926;2023-05-19T17:47:24;5.57;;;1.75;;
66870;SDS011;53780;44.998;9.926;2023-05-19T17:50:28;4.57;;;1.60;;
66870;SDS011;53780;44.998;9.926;2023-05-19T17:53:32;4.43;;;1.50;;
66870;SDS011;53780;44.998;9.926;2023-05-19T17:56:38;3.87;;;1.40;;
66870;SDS011;53780;44.998;9.926;2023-05-19T17:59:44;4.03;;;1.30;;
66870;SDS011;53780;44.998;9.926;2023-05-19T18:02:49;3.80;;;1.00;;
66870;SDS011;53780;44.998;9.926;2023-05-19T18:05:53;5.35;;;1.10;;
66870;SDS011;53780;44.998;9.926;2023-05-19T18:08:57;4.60;;;1.92;;
66870;SDS011;53780;44.998;9.926;2023-05-19T18:12:04;3.57;;;0.93;;
66870;SDS011;53780;44.998;9.926;2023-05-19T18:15:08;3.90;;;1.00;;
66870;SDS011;53780;44.998;9.926;2023-05-19T18:18:12;3.70;;;1.20;;
66870;SDS011;53780;44.998;9.926;2023-05-19T18:21:16;4.88;;;0.80;;
66870;SDS011;53780;44.998;9.926;2023-05-19T18:24:20;3.28;;;1.20;;
66870;SDS011;53780;44.998;9.926;2023-05-19T18:27:24;3.03;;;0.80;;
66870;SDS011;53780;44.998;9.926;2023-05-19T18:30:29;4.20;;;0.75;;
66870;SDS011;53780;44.998;9.926;2023-05-19T18:33:33;3.97;;;1.15;;
66870;SDS011;53780;44.998;9.926;2023-05-19T18:36:37;7.05;;;0.95;;
66870;SDS011;53780;44.998;9.926;2023-05-19T18:39:41;4.85;;;0.65;;
66870;SDS011;53780;44.998;9.926;2023-05-19T18:42:45;3.97;;;0.57;;
66870;SDS011;53780;44.998;9.926;2023-05-19T18:45:50;5.45;;;0.70;;
66870;SDS011;53780;44.998;9.926;2023-05-19T18:48:53;4.10;;;0.75;;
66870;SDS011;53780;44.998;9.926;2023-05-19T18:51:57;4.22;;;1.00;;